createdAt,value
2018-09-19T00:00:40.532Z,47.97
2018-09-19T00:03:09.520Z,47.65
2018-09-19T00:05:38.496Z,48.31
2018-09-19T00:08:07.417Z,48.30
2018-09-19T00:10:36.241Z,48.21
2018-09-19T00:13:05.025Z,49.17
2018-09-19T00:15:33.832Z,49.14
2018-09-19T00:18:02.532Z,49.00
2018-09-19T00:20:31.344Z,48.92
2018-09-19T00:23:00.118Z,48.98
2018-09-19T00:25:29.182Z,49.30
2018-09-19T00:27:58.641Z,49.81
2018-09-19T00:30:27.501Z,49.32
2018-09-19T00:32:56.325Z,49.15
2018-09-19T00:35:25.396Z,49.44
2018-09-19T00:37:54.707Z,50.15
2018-09-19T00:40:23.795Z,50.16
2018-09-19T00:42:53.069Z,49.81
2018-09-19T00:45:22.571Z,50.21
2018-09-19T00:47:51.395Z,50.18
2018-09-19T00:50:20.695Z,50.07
2018-09-19T00:52:49.569Z,50.29
2018-09-19T00:55:18.373Z,50.45
2018-09-19T00:57:47.255Z,50.91
2018-09-19T01:00:16.479Z,50.93
2018-09-19T01:02:45.470Z,51.18
2018-09-19T01:05:14.332Z,51.11
2018-09-19T01:07:43.498Z,51.22
2018-09-19T01:10:12.724Z,50.85
2018-09-19T01:12:41.900Z,51.45
2018-09-19T01:15:10.898Z,51.29
2018-09-19T01:17:39.824Z,51.30
2018-09-19T01:20:08.907Z,51.07
2018-09-19T01:22:38.338Z,51.38
2018-09-19T01:25:07.198Z,51.52
2018-09-19T01:27:36.048Z,51.73
2018-09-19T01:30:05.126Z,50.87
2018-09-19T01:32:33.978Z,51.55
2018-09-19T01:35:02.754Z,51.21
2018-09-19T01:37:31.867Z,50.77
2018-09-19T01:40:00.901Z,50.43
2018-09-19T01:42:29.669Z,50.38
2018-09-19T01:44:58.461Z,50.98
2018-09-19T01:47:27.455Z,50.75
2018-09-19T01:49:56.196Z,50.42
2018-09-19T01:52:25.231Z,51.27
2018-09-19T01:54:54.563Z,51.15
2018-09-19T01:57:23.276Z,51.40
2018-09-19T01:59:52.037Z,52.26
2018-09-19T02:02:20.788Z,53.14
2018-09-19T02:04:49.479Z,52.52
2018-09-19T02:07:18.299Z,53.12
2018-09-19T02:09:47.298Z,52.87
2018-09-19T02:12:16.047Z,52.98
2018-09-19T02:14:45.707Z,52.98
2018-09-19T02:17:14.558Z,53.58
2018-09-19T02:19:43.383Z,53.31
2018-09-19T02:22:12.164Z,53.89
2018-09-19T02:24:41.151Z,54.21
2018-09-19T02:27:09.992Z,54.13
2018-09-19T02:29:38.728Z,53.86
2018-09-19T02:32:07.557Z,54.48
2018-09-19T02:34:36.307Z,54.33
2018-09-19T02:37:05.064Z,54.97
2018-09-19T02:39:33.944Z,55.19
2018-09-19T02:42:03.097Z,55.43
2018-09-19T02:44:32.076Z,54.91
2018-09-19T02:47:01.248Z,55.79
2018-09-19T02:49:30.209Z,55.61
2018-09-19T02:51:59.990Z,56.15
2018-09-19T02:54:30.611Z,56.27
2018-09-19T02:56:59.824Z,56.22
2018-09-19T02:59:29.025Z,56.79
2018-09-19T03:01:58.342Z,56.57
2018-09-19T03:04:27.808Z,56.81
2018-09-19T03:06:56.614Z,57.67
2018-09-19T03:09:26.012Z,57.19
2018-09-19T03:11:55.118Z,57.31
2018-09-19T03:14:23.905Z,58.11
2018-09-19T03:16:52.733Z,58.24
2018-09-19T03:19:22.009Z,57.71
2018-09-19T03:21:51.750Z,58.12
2018-09-19T03:24:20.623Z,58.19
2018-09-19T03:26:49.388Z,58.42
2018-09-19T03:29:18.471Z,58.49
2018-09-19T03:31:47.265Z,58.52
2018-09-19T03:34:16.130Z,58.76
2018-09-19T03:36:45.671Z,58.75
2018-09-19T03:39:14.481Z,58.96
2018-09-19T03:41:43.274Z,58.98
2018-09-19T03:44:12.031Z,59.13
2018-09-19T03:46:41.004Z,59.06
2018-09-19T03:49:10.205Z,59.64
2018-09-19T03:51:39.817Z,59.19
2018-09-19T03:54:09.345Z,59.85
2018-09-19T03:56:38.451Z,59.33
2018-09-19T03:59:07.186Z,59.33
2018-09-19T04:01:36.648Z,59.28
2018-09-19T04:04:05.477Z,59.39
2018-09-19T04:06:34.372Z,59.56
2018-09-19T04:09:03.385Z,60.32
2018-09-19T04:11:32.314Z,59.84
2018-09-19T04:14:01.614Z,60.56
2018-09-19T04:16:30.442Z,60.26
2018-09-19T04:18:59.607Z,60.90
2018-09-19T04:21:28.761Z,60.71
2018-09-19T04:23:57.547Z,60.70
2018-09-19T04:26:26.341Z,60.61
2018-09-19T04:28:55.146Z,60.56
2018-09-19T04:31:23.935Z,60.73
2018-09-19T04:33:53.358Z,61.34
2018-09-19T04:36:22.367Z,61.44
2018-09-19T04:38:51.676Z,61.44
2018-09-19T04:41:20.519Z,61.28
2018-09-19T04:43:49.589Z,61.51
2018-09-19T04:46:18.676Z,61.53
2018-09-19T04:48:47.591Z,61.70
2018-09-19T04:51:16.485Z,61.65
2018-09-19T04:53:45.644Z,61.80
2018-09-19T04:56:14.511Z,61.91
2018-09-19T04:58:43.519Z,62.18
2018-09-19T05:01:12.498Z,61.63
2018-09-19T05:03:41.321Z,62.60
2018-09-19T05:06:10.188Z,62.25
2018-09-19T05:08:39.022Z,62.68
2018-09-19T05:11:07.868Z,62.83
2018-09-19T05:13:36.655Z,62.54
2018-09-19T05:16:05.467Z,63.07
2018-09-19T05:18:34.522Z,62.88
2018-09-19T05:21:03.689Z,62.17
2018-09-19T05:23:32.460Z,62.92
2018-09-19T05:26:01.341Z,62.95
2018-09-19T05:28:30.435Z,63.06
2018-09-19T05:30:59.164Z,61.98
2018-09-19T05:33:28.238Z,63.15
2018-09-19T05:36:00.097Z,63.23
2018-09-19T05:38:29.677Z,62.80
2018-09-19T05:40:58.775Z,62.64
2018-09-19T05:43:28.388Z,62.42
2018-09-19T05:45:57.303Z,63.46
2018-09-19T05:48:27.452Z,63.41
2018-09-19T05:50:56.203Z,63.27
2018-09-19T05:53:25.718Z,63.21
2018-09-19T05:55:55.296Z,63.64
2018-09-19T05:58:25.028Z,64.43
2018-09-19T06:00:55.136Z,63.54
2018-09-19T06:03:25.113Z,64.29
2018-09-19T06:05:54.172Z,63.76
2018-09-19T06:08:23.564Z,63.70
2018-09-19T06:10:52.853Z,64.06
2018-09-19T06:13:21.726Z,63.89
2018-09-19T06:15:50.651Z,64.13
2018-09-19T06:18:19.435Z,64.12
2018-09-19T06:20:50.046Z,64.42
2018-09-19T06:23:19.213Z,64.33
2018-09-19T06:25:48.326Z,64.69
2018-09-19T06:28:17.666Z,64.68
2018-09-19T06:30:46.937Z,64.90
2018-09-19T06:33:16.777Z,64.61
2018-09-19T06:35:46.424Z,64.70
2018-09-19T06:38:16.582Z,65.00
2018-09-19T06:40:47.084Z,64.64
2018-09-19T06:43:16.186Z,64.45
2018-09-19T06:45:45.063Z,64.60
2018-09-19T06:48:13.830Z,64.79
2018-09-19T06:50:42.635Z,64.98
2018-09-19T06:53:11.816Z,64.71
2018-09-19T06:55:40.585Z,64.08
2018-09-19T06:58:10.129Z,64.82
2018-09-19T07:00:39.912Z,64.48
2018-09-19T07:03:08.726Z,63.30
2018-09-19T07:05:37.942Z,62.88
2018-09-19T07:08:07.735Z,62.96
2018-09-19T07:10:36.551Z,62.52
2018-09-19T07:13:05.474Z,61.76
2018-09-19T07:15:34.391Z,61.61
2018-09-19T07:18:03.175Z,61.83
2018-09-19T07:20:31.985Z,60.69
2018-09-19T07:23:01.478Z,61.58
2018-09-19T07:25:30.416Z,61.43
2018-09-19T07:27:59.731Z,60.86
2018-09-19T07:30:28.932Z,59.96
2018-09-19T07:32:58.081Z,60.03
2018-09-19T07:35:26.947Z,59.87
2018-09-19T07:37:56.346Z,60.55
2018-09-19T07:40:25.328Z,59.88
2018-09-19T07:42:54.125Z,60.30
2018-09-19T07:45:23.853Z,60.53
2018-09-19T07:47:52.900Z,60.32
2018-09-19T07:50:22.790Z,60.76
2018-09-19T07:52:52.388Z,60.32
2018-09-19T07:55:21.260Z,61.26
2018-09-19T07:57:49.984Z,60.87
2018-09-19T08:00:19.293Z,59.59
2018-09-19T08:02:48.529Z,60.41
2018-09-19T08:05:17.543Z,59.64
2018-09-19T08:07:46.392Z,59.67
2018-09-19T08:10:15.422Z,59.92
2018-09-19T08:12:44.188Z,59.17
2018-09-19T08:15:12.995Z,59.19
2018-09-19T08:17:42.125Z,58.66
2018-09-19T08:20:11.148Z,58.43
2018-09-19T08:22:39.918Z,58.37
2018-09-19T08:25:08.731Z,58.22
2018-09-19T08:27:37.841Z,58.52
2018-09-19T08:30:06.746Z,57.87
2018-09-19T08:32:35.754Z,58.07
2018-09-19T08:35:04.965Z,57.89
2018-09-19T08:37:33.698Z,56.89
2018-09-19T08:40:02.736Z,57.17
2018-09-19T08:42:31.497Z,55.22
2018-09-19T08:45:01.063Z,54.45
2018-09-19T08:47:30.729Z,55.18
2018-09-19T08:49:59.965Z,54.99
2018-09-19T08:52:29.098Z,53.99
2018-09-19T08:54:58.152Z,53.60
2018-09-19T08:57:26.943Z,53.46
2018-09-19T08:59:55.752Z,53.63
2018-09-19T09:02:24.916Z,53.76
2018-09-19T09:04:54.107Z,52.72
2018-09-19T09:07:23.275Z,52.02
2018-09-19T09:09:52.101Z,51.98
2018-09-19T09:12:20.969Z,49.94
2018-09-19T09:14:49.669Z,49.22
2018-09-19T09:17:18.815Z,49.71
2018-09-19T09:19:47.874Z,49.51
2018-09-19T09:22:16.713Z,49.02
2018-09-19T09:24:46.134Z,49.14
2018-09-19T09:27:14.976Z,48.86
2018-09-19T09:29:44.073Z,49.07
2018-09-19T09:32:12.875Z,49.49
2018-09-19T09:34:42.065Z,50.37
2018-09-19T09:37:10.877Z,49.93
2018-09-19T09:39:39.754Z,49.58
2018-09-19T09:42:09.051Z,49.59
2018-09-19T09:44:38.111Z,49.61
2018-09-19T09:47:07.417Z,49.76
2018-09-19T09:49:36.761Z,49.61
2018-09-19T09:52:05.748Z,49.54
2018-09-19T09:54:35.193Z,49.54
2018-09-19T09:57:04.733Z,49.79
2018-09-19T09:59:33.630Z,49.92
2018-09-19T10:02:05.846Z,49.32
2018-09-19T10:04:35.426Z,50.07
2018-09-19T10:07:04.160Z,50.04
2018-09-19T10:09:32.992Z,50.70
2018-09-19T10:12:02.182Z,50.05
2018-09-19T10:14:30.943Z,48.90
2018-09-19T10:17:00.371Z,49.86
2018-09-19T10:19:29.582Z,49.71
2018-09-19T10:21:59.236Z,48.95
2018-09-19T10:24:28.406Z,48.57
2018-09-19T10:26:57.501Z,47.96
2018-09-19T10:29:26.865Z,47.42
2018-09-19T10:31:56.508Z,48.29
2018-09-19T10:34:25.298Z,46.00
2018-09-19T10:36:54.657Z,47.41
2018-09-19T10:39:23.928Z,46.88
2018-09-19T10:41:53.267Z,44.80
2018-09-19T10:44:22.849Z,43.96
2018-09-19T10:46:52.357Z,43.84
2018-09-19T10:49:21.390Z,42.78
2018-09-19T10:51:50.557Z,42.47
2018-09-19T10:54:19.527Z,44.13
2018-09-19T10:56:48.454Z,44.52
2018-09-19T10:59:18.329Z,43.82
2018-09-19T11:01:47.339Z,44.37
2018-09-19T11:04:16.673Z,44.58
2018-09-19T11:06:45.861Z,44.78
2018-09-19T11:09:15.455Z,45.59
2018-09-19T11:11:45.050Z,45.06
2018-09-19T11:14:13.871Z,46.20
2018-09-19T11:16:48.967Z,46.00
2018-09-19T11:19:18.102Z,46.22
2018-09-19T11:21:46.820Z,46.75
2018-09-19T11:24:16.072Z,46.04
2018-09-19T11:26:45.993Z,45.95
2018-09-19T11:29:15.162Z,45.09
2018-09-19T11:31:44.288Z,45.01
2018-09-19T11:34:13.162Z,44.82
2018-09-19T11:36:42.042Z,44.17
2018-09-19T11:39:12.537Z,43.85
2018-09-19T11:41:41.746Z,42.40
2018-09-19T11:44:10.941Z,40.70
2018-09-19T11:46:39.765Z,40.38
2018-09-19T11:49:08.904Z,39.55
2018-09-19T11:51:38.064Z,40.14
2018-09-19T11:54:07.692Z,40.58
2018-09-19T11:56:37.070Z,39.94
2018-09-19T11:59:06.203Z,38.55
2018-09-19T12:01:35.128Z,36.79
2018-09-19T12:04:04.322Z,34.73
2018-09-19T12:06:33.174Z,32.97
2018-09-19T12:09:02.315Z,32.63
2018-09-19T12:11:31.962Z,29.20
2018-09-19T12:14:07.398Z,27.52
2018-09-19T12:16:36.561Z,26.27
2018-09-19T12:19:06.210Z,25.57
2018-09-19T12:21:35.134Z,24.33
2018-09-19T12:24:04.114Z,24.01
2018-09-19T12:26:33.643Z,23.64
2018-09-19T12:29:02.726Z,23.67
2018-09-19T12:31:31.930Z,23.85
2018-09-19T12:34:00.670Z,25.25
2018-09-19T12:36:29.659Z,26.80
2018-09-19T12:38:59.389Z,29.34
2018-09-19T12:41:28.495Z,31.11
2018-09-19T12:43:57.208Z,33.22
2018-09-19T12:46:26.112Z,35.06
2018-09-19T12:48:55.098Z,34.57
2018-09-19T12:51:24.112Z,36.22
2018-09-19T12:53:53.562Z,35.77
2018-09-19T12:56:22.826Z,35.78
2018-09-19T12:58:51.766Z,35.98
2018-09-19T13:01:20.587Z,37.59
2018-09-19T13:03:49.450Z,38.21
2018-09-19T13:06:18.536Z,37.04
2018-09-19T13:08:47.748Z,37.89
2018-09-19T13:11:17.451Z,37.05
2018-09-19T13:13:46.798Z,37.30
2018-09-19T13:16:15.774Z,37.76
2018-09-19T13:18:44.716Z,38.64
2018-09-19T13:21:14.638Z,38.92
2018-09-19T13:23:43.843Z,38.86
2018-09-19T13:26:12.900Z,39.57
2018-09-19T13:28:41.744Z,38.98
2018-09-19T13:31:10.570Z,40.09
2018-09-19T13:33:39.759Z,39.75
2018-09-19T13:36:08.746Z,40.15
2018-09-19T13:38:39.421Z,39.11
2018-09-19T13:41:08.664Z,38.76
2018-09-19T13:43:37.682Z,39.95
2018-09-19T13:46:06.701Z,39.25
2018-09-19T13:48:35.588Z,40.00
2018-09-19T13:51:12.581Z,39.31
2018-09-19T13:53:41.517Z,38.53
2018-09-19T13:56:10.908Z,38.07
2018-09-19T13:58:40.474Z,37.83
2018-09-19T14:01:09.911Z,37.74
2018-09-19T14:03:38.974Z,37.47
2018-09-19T14:06:08.998Z,39.02
2018-09-19T14:08:37.909Z,39.53
2018-09-19T14:11:06.847Z,37.92
2018-09-19T14:13:35.877Z,37.84
2018-09-19T14:16:04.728Z,37.22
2018-09-19T14:18:37.193Z,36.54
2018-09-19T14:21:06.715Z,37.70
2018-09-19T14:23:37.143Z,37.09
2018-09-19T14:26:09.818Z,37.36
2018-09-19T14:28:43.017Z,37.29
2018-09-19T14:31:12.242Z,37.48
2018-09-19T14:33:41.146Z,36.93
2018-09-19T14:36:10.398Z,37.75
2018-09-19T14:38:39.940Z,36.65
2018-09-19T14:41:09.424Z,37.38
2018-09-19T14:43:38.375Z,38.30
2018-09-19T14:46:07.650Z,38.21
2018-09-19T14:48:38.573Z,38.61
2018-09-19T14:51:07.508Z,38.35
2018-09-19T14:53:36.557Z,37.35
2018-09-19T14:56:06.551Z,36.87
2018-09-19T14:58:35.671Z,37.64
2018-09-19T15:01:04.821Z,36.94
2018-09-19T15:03:34.194Z,36.77
2018-09-19T15:06:03.922Z,37.57
2018-09-19T15:08:33.337Z,38.46
2018-09-19T15:11:02.537Z,38.23
2018-09-19T15:13:31.990Z,38.69
2018-09-19T15:16:01.149Z,39.12
2018-09-19T15:18:30.142Z,38.41
2018-09-19T15:20:59.571Z,38.30
2018-09-19T15:23:28.482Z,37.98
2018-09-19T15:25:57.628Z,37.97
2018-09-19T15:28:28.371Z,38.84
2018-09-19T15:30:57.674Z,38.19
2018-09-19T15:33:29.667Z,37.78
2018-09-19T15:35:59.704Z,38.33
2018-09-19T15:38:28.524Z,38.12
2018-09-19T15:40:57.472Z,38.26
2018-09-19T15:43:26.358Z,38.60
2018-09-19T15:45:55.431Z,37.98
2018-09-19T15:48:24.991Z,38.06
2018-09-19T15:50:54.294Z,39.21
2018-09-19T15:53:24.357Z,38.58
2018-09-19T15:55:53.961Z,39.14
2018-09-19T15:58:23.327Z,38.48
2018-09-19T16:00:52.509Z,39.19
2018-09-19T16:03:22.008Z,39.35
2018-09-19T16:05:51.244Z,40.18
2018-09-19T16:08:20.494Z,40.75
2018-09-19T16:10:49.893Z,41.00
2018-09-19T16:13:19.721Z,41.34
2018-09-19T16:15:49.291Z,41.06
2018-09-19T16:18:18.530Z,41.20
2018-09-19T16:20:47.631Z,42.29
2018-09-19T16:23:16.629Z,42.28
2018-09-19T16:25:45.388Z,42.10
2018-09-19T16:28:14.339Z,41.32
2018-09-19T16:30:43.185Z,41.68
2018-09-19T16:33:12.170Z,41.64
2018-09-19T16:35:41.326Z,41.17
2018-09-19T16:38:10.916Z,42.23
2018-09-19T16:40:40.900Z,42.11
2018-09-19T16:43:10.423Z,42.92
2018-09-19T16:45:39.432Z,42.84
2018-09-19T16:48:08.609Z,43.06
2018-09-19T16:50:38.310Z,43.86
2018-09-19T16:53:08.221Z,43.60
2018-09-19T16:55:37.120Z,43.86
2018-09-19T16:58:06.212Z,43.96
2018-09-19T17:00:35.106Z,44.71
2018-09-19T17:03:04.163Z,44.75
2018-09-19T17:05:33.435Z,45.11
2018-09-19T17:08:04.537Z,44.78
2018-09-19T17:10:33.798Z,45.03
2018-09-19T17:13:02.770Z,45.57
2018-09-19T17:15:32.039Z,45.89
2018-09-19T17:18:01.242Z,45.93
2018-09-19T17:20:30.696Z,45.95
2018-09-19T17:23:04.788Z,45.98
2018-09-19T17:25:41.547Z,46.39
2018-09-19T17:28:10.808Z,46.02
2018-09-19T17:30:39.722Z,46.28
2018-09-19T17:33:08.815Z,45.98
2018-09-19T17:35:37.994Z,46.08
2018-09-19T17:38:07.054Z,45.96
2018-09-19T17:40:36.603Z,46.56
2018-09-19T17:43:05.696Z,46.95
2018-09-19T17:45:34.748Z,47.37
2018-09-19T17:48:03.779Z,47.24
2018-09-19T17:50:32.772Z,48.06
2018-09-19T17:53:01.900Z,48.48
2018-09-19T17:55:30.758Z,48.50
2018-09-19T17:57:59.710Z,48.63
2018-09-19T18:00:28.892Z,48.55
2018-09-19T18:02:58.097Z,47.88
2018-09-19T18:05:27.106Z,48.25
2018-09-19T18:07:56.302Z,48.84
2018-09-19T18:10:25.794Z,48.47
2018-09-19T18:12:54.880Z,48.68
2018-09-19T18:15:24.077Z,49.11
2018-09-19T18:17:53.831Z,49.39
2018-09-19T18:20:22.743Z,49.35
2018-09-19T18:22:51.686Z,49.69
2018-09-19T18:25:20.833Z,49.16
2018-09-19T18:27:52.037Z,49.46
2018-09-19T18:30:22.650Z,49.53
2018-09-19T18:32:51.749Z,49.28
2018-09-19T18:35:20.725Z,47.35
2018-09-19T18:37:56.758Z,48.23
2018-09-19T18:40:26.139Z,47.36
2018-09-19T18:42:55.260Z,47.85
2018-09-19T18:45:24.621Z,47.26
2018-09-19T18:50:32.662Z,47.05
2018-09-19T18:53:19.573Z,47.42
2018-09-19T18:56:00.761Z,46.88
2018-09-19T18:58:30.661Z,47.16
2018-09-19T19:01:00.137Z,46.82
2018-09-19T19:03:29.315Z,46.91
2018-09-19T19:05:59.805Z,47.00
2018-09-19T19:08:28.793Z,46.52
2018-09-19T19:11:01.365Z,47.09
2018-09-19T19:13:31.082Z,46.67
2018-09-19T19:16:00.092Z,46.86
2018-09-19T19:18:29.572Z,47.52
2018-09-19T19:20:58.669Z,47.33
2018-09-19T19:23:27.898Z,47.50
2018-09-19T19:25:57.110Z,47.70
2018-09-19T19:28:27.947Z,47.66
2018-09-19T19:31:04.104Z,47.87
2018-09-19T19:33:33.618Z,47.77
2018-09-19T19:36:03.726Z,48.22
2018-09-19T19:38:32.752Z,47.94
2018-09-19T19:41:02.497Z,48.05
2018-09-19T19:43:40.547Z,48.62
2018-09-19T19:48:53.586Z,48.74
2018-09-19T19:51:22.756Z,48.84
2018-09-19T19:53:53.036Z,48.12
2018-09-19T19:56:23.227Z,48.90
2018-09-19T19:58:53.003Z,48.33
2018-09-19T20:01:21.902Z,47.97
2018-09-19T20:03:51.038Z,48.29
2018-09-19T20:06:19.842Z,48.05
2018-09-19T20:08:48.683Z,48.58
2018-09-19T20:11:17.848Z,48.52
2018-09-19T20:13:47.415Z,47.78
2018-09-19T20:16:16.638Z,48.52
2018-09-19T20:18:45.675Z,48.92
2018-09-19T20:21:14.873Z,48.79
2018-09-19T20:23:43.991Z,48.24
2018-09-19T20:26:14.001Z,48.94
2018-09-19T20:28:42.753Z,49.65
2018-09-19T20:31:11.565Z,49.38
2018-09-19T20:33:40.332Z,49.43
2018-09-19T20:36:09.119Z,49.83
2018-09-19T20:38:38.749Z,50.31
2018-09-19T20:41:08.012Z,49.76
2018-09-19T20:43:38.484Z,49.85
2018-09-19T20:46:08.881Z,50.61
2018-09-19T20:48:38.508Z,50.25
2018-09-19T20:51:07.941Z,50.53
2018-09-19T20:53:37.543Z,50.58
2018-09-19T20:56:06.945Z,50.67
2018-09-19T20:58:35.679Z,50.28
2018-09-19T21:01:04.626Z,50.54
2018-09-19T21:03:33.654Z,50.32
2018-09-19T21:06:02.711Z,50.57
2018-09-19T21:08:31.755Z,51.18
2018-09-19T21:11:01.106Z,50.56
2018-09-19T21:13:30.103Z,51.63
2018-09-19T21:15:59.552Z,50.69
2018-09-19T21:18:28.910Z,51.34
2018-09-19T21:20:57.720Z,51.49
2018-09-19T21:23:26.791Z,51.59
2018-09-19T21:25:55.580Z,50.80
2018-09-19T21:28:24.745Z,50.40
2018-09-19T21:30:53.934Z,51.09
2018-09-19T21:33:23.198Z,50.96
2018-09-19T21:35:51.975Z,50.95
2018-09-19T21:38:20.820Z,51.70
2018-09-19T21:40:49.995Z,52.39
2018-09-19T21:43:18.776Z,51.55
2018-09-19T21:45:47.561Z,51.85
2018-09-19T21:48:16.634Z,51.38
2018-09-19T21:50:45.467Z,51.32
2018-09-19T21:53:14.619Z,50.79
2018-09-19T21:55:43.757Z,51.04
2018-09-19T21:58:12.606Z,51.60
2018-09-19T22:00:41.591Z,51.55
2018-09-19T22:03:11.014Z,51.02
2018-09-19T22:05:40.222Z,51.02
2018-09-19T22:08:09.317Z,51.71
2018-09-19T22:10:38.080Z,51.72
2018-09-19T22:13:06.937Z,51.73
2018-09-19T22:15:35.877Z,52.31
2018-09-19T22:18:04.610Z,51.78
2018-09-19T22:20:33.766Z,52.26
2018-09-19T22:23:03.276Z,52.19
2018-09-19T22:25:32.096Z,52.32
2018-09-19T22:28:00.790Z,52.05
2018-09-19T22:30:30.563Z,51.96
2018-09-19T22:32:59.537Z,52.28
2018-09-19T22:35:28.378Z,52.27
2018-09-19T22:37:57.340Z,52.37
2018-09-19T22:40:26.106Z,52.06
2018-09-19T22:42:54.890Z,52.86
2018-09-19T22:45:23.804Z,52.72
2018-09-19T22:47:52.605Z,53.00
2018-09-19T22:50:21.473Z,52.77
2018-09-19T22:52:50.447Z,52.85
2018-09-19T22:55:19.248Z,53.14
2018-09-19T22:57:48.030Z,53.18
2018-09-19T23:00:17.164Z,53.43
2018-09-19T23:02:46.262Z,53.22
2018-09-19T23:05:15.019Z,52.84
2018-09-19T23:07:43.814Z,53.25
2018-09-19T23:10:12.588Z,53.16
2018-09-19T23:12:41.743Z,53.06
2018-09-19T23:15:10.848Z,53.52
2018-09-19T23:17:39.639Z,53.31
2018-09-19T23:20:09.039Z,53.62
2018-09-19T23:22:37.804Z,54.28
2018-09-19T23:25:06.594Z,54.27
2018-09-19T23:27:35.707Z,54.27
2018-09-19T23:30:05.308Z,54.39
2018-09-19T23:32:34.510Z,54.54
2018-09-19T23:35:03.637Z,53.96
2018-09-19T23:37:32.757Z,53.39
2018-09-19T23:40:01.504Z,53.79
2018-09-19T23:42:31.327Z,53.66
2018-09-19T23:45:00.795Z,53.99
2018-09-19T23:47:30.510Z,53.59
2018-09-19T23:49:59.506Z,53.11
2018-09-19T23:52:28.800Z,53.55
2018-09-19T23:54:57.569Z,53.74
2018-09-19T23:57:26.439Z,53.76
2018-09-19T23:59:55.492Z,53.91
